createdAt,value
2018-09-15T00:02:26.645Z,6.60
2018-09-15T00:04:55.610Z,6.00
2018-09-15T00:07:26.048Z,6.30
2018-09-15T00:09:54.966Z,6.50
2018-09-15T00:12:24.080Z,6.20
2018-09-15T00:14:53.240Z,6.10
2018-09-15T00:17:22.290Z,6.13
2018-09-15T00:19:51.294Z,6.37
2018-09-15T00:22:21.218Z,6.20
2018-09-15T00:24:50.373Z,6.57
2018-09-15T00:27:19.589Z,5.93
2018-09-15T00:29:48.618Z,5.87
2018-09-15T00:32:17.622Z,6.07
2018-09-15T00:34:46.617Z,5.93
2018-09-15T00:37:16.052Z,5.60
2018-09-15T00:39:45.143Z,6.10
2018-09-15T00:42:14.241Z,5.70
2018-09-15T00:44:43.253Z,6.47
2018-09-15T00:47:12.236Z,6.23
2018-09-15T00:49:42.945Z,6.90
2018-09-15T00:52:12.012Z,6.07
2018-09-15T00:54:41.007Z,6.60
2018-09-15T00:57:10.779Z,7.80
2018-09-15T00:59:40.005Z,7.37
2018-09-15T01:02:09.099Z,7.60
2018-09-15T01:04:39.258Z,8.97
2018-09-15T01:07:08.662Z,7.90
2018-09-15T01:09:37.665Z,7.97
2018-09-15T01:12:06.353Z,7.53
2018-09-15T01:14:35.596Z,8.33
2018-09-15T01:17:04.599Z,7.93
2018-09-15T01:19:34.248Z,7.93
2018-09-15T01:22:03.217Z,8.20
2018-09-15T01:24:32.230Z,7.70
2018-09-15T01:27:02.040Z,7.50
2018-09-15T01:29:31.189Z,7.97
2018-09-15T01:32:00.397Z,8.10
2018-09-15T01:34:29.651Z,8.63
2018-09-15T01:36:58.621Z,7.30
2018-09-15T01:39:27.721Z,8.00
2018-09-15T01:41:57.281Z,7.13
2018-09-15T01:44:26.365Z,7.30
2018-09-15T01:46:55.575Z,6.37
2018-09-15T01:49:28.768Z,6.70
2018-09-15T01:51:58.087Z,6.37
2018-09-15T01:54:27.341Z,6.60
2018-09-15T01:56:56.910Z,6.03
2018-09-15T01:59:26.023Z,6.47
2018-09-15T02:01:54.975Z,6.20
2018-09-15T02:04:24.348Z,6.10
2018-09-15T02:06:53.392Z,5.97
2018-09-15T02:09:23.687Z,5.90
2018-09-15T02:11:55.855Z,6.70
2018-09-15T02:14:24.928Z,6.47
2018-09-15T02:16:54.047Z,6.53
2018-09-15T02:19:25.671Z,6.47
2018-09-15T02:21:54.734Z,6.37
2018-09-15T02:24:23.735Z,6.33
2018-09-15T02:26:54.159Z,7.47
2018-09-15T02:29:23.290Z,5.80
2018-09-15T02:31:51.909Z,6.63
2018-09-15T02:34:22.032Z,6.70
2018-09-15T02:36:51.055Z,6.33
2018-09-15T02:39:20.115Z,5.63
2018-09-15T02:41:49.347Z,6.33
2018-09-15T02:44:18.498Z,6.13
2018-09-15T02:46:47.711Z,6.50
2018-09-15T02:49:16.937Z,6.60
2018-09-15T02:51:46.137Z,6.90
2018-09-15T02:54:16.236Z,7.10
2018-09-15T02:56:45.395Z,15.43
2018-09-15T02:59:14.528Z,7.60
2018-09-15T03:01:43.862Z,7.73
2018-09-15T03:04:12.933Z,7.80
2018-09-15T03:06:42.178Z,8.70
2018-09-15T03:09:14.638Z,7.80
2018-09-15T03:11:43.644Z,8.27
2018-09-15T03:14:12.746Z,7.97
2018-09-15T03:16:42.013Z,8.00
2018-09-15T03:19:11.017Z,9.10
2018-09-15T03:21:40.085Z,7.83
2018-09-15T03:24:09.074Z,9.53
2018-09-15T03:26:38.235Z,9.00
2018-09-15T03:29:07.432Z,8.60
2018-09-15T03:31:36.884Z,8.23
2018-09-15T03:34:06.170Z,7.63
2018-09-15T03:36:35.391Z,8.10
2018-09-15T03:39:07.496Z,8.70
2018-09-15T03:41:36.564Z,7.40
2018-09-15T03:44:05.610Z,6.33
2018-09-15T03:46:34.954Z,8.60
2018-09-15T03:49:04.010Z,8.10
2018-09-15T03:51:33.121Z,6.87
2018-09-15T03:54:02.175Z,14.07
2018-09-15T03:56:31.254Z,8.17
2018-09-15T03:59:00.264Z,9.80
2018-09-15T04:01:31.638Z,9.33
2018-09-15T04:04:00.993Z,9.43
2018-09-15T04:06:29.948Z,7.23
2018-09-15T04:08:59.754Z,7.40
2018-09-15T04:11:28.303Z,6.80
2018-09-15T04:13:56.854Z,7.33
2018-09-15T04:16:27.985Z,12.00
2018-09-15T04:18:57.057Z,10.07
2018-09-15T04:21:26.291Z,9.43
2018-09-15T04:23:55.642Z,8.30
2018-09-15T04:26:24.811Z,8.50
2018-09-15T04:28:54.117Z,8.77
2018-09-15T04:31:24.198Z,8.10
2018-09-15T04:33:53.462Z,8.40
2018-09-15T04:36:22.386Z,17.77
2018-09-15T04:38:53.251Z,12.40
2018-09-15T04:41:22.570Z,9.00
2018-09-15T04:43:51.578Z,8.90
2018-09-15T04:46:21.037Z,10.53
2018-09-15T04:48:50.104Z,9.23
2018-09-15T04:51:18.609Z,10.50
2018-09-15T04:53:47.575Z,10.07
2018-09-15T04:56:16.623Z,10.43
2018-09-15T04:58:46.292Z,10.97
2018-09-15T05:01:15.354Z,9.60
2018-09-15T05:03:44.564Z,11.03
2018-09-15T05:06:13.836Z,10.20
2018-09-15T05:08:43.007Z,10.97
2018-09-15T05:11:12.016Z,10.10
2018-09-15T05:13:41.163Z,10.90
2018-09-15T05:16:10.246Z,11.13
2018-09-15T05:18:39.257Z,10.20
2018-09-15T05:21:08.825Z,11.33
2018-09-15T05:23:37.884Z,10.43
2018-09-15T05:26:06.997Z,9.43
2018-09-15T05:28:37.714Z,11.37
2018-09-15T05:31:06.863Z,9.97
2018-09-15T05:33:36.081Z,11.43
2018-09-15T05:36:05.516Z,11.40
2018-09-15T05:38:34.516Z,11.10
2018-09-15T05:41:03.912Z,11.30
2018-09-15T05:43:34.671Z,11.00
2018-09-15T05:46:03.772Z,12.20
2018-09-15T05:48:32.885Z,12.50
2018-09-15T05:51:02.332Z,12.10
2018-09-15T05:53:31.207Z,12.10
2018-09-15T05:56:00.178Z,11.50
2018-09-15T05:58:30.770Z,11.10
2018-09-15T06:00:59.806Z,10.50
2018-09-15T06:03:28.702Z,20.90
2018-09-15T06:05:59.017Z,11.30
2018-09-15T06:08:27.828Z,9.80
2018-09-15T06:10:56.608Z,10.73
2018-09-15T06:13:27.723Z,9.20
2018-09-15T06:15:56.937Z,10.43
2018-09-15T06:18:25.923Z,9.50
2018-09-15T06:20:55.309Z,8.53
2018-09-15T06:23:24.279Z,8.70
2018-09-15T06:25:53.372Z,9.03
2018-09-15T06:28:22.697Z,8.70
2018-09-15T06:30:52.502Z,8.63
2018-09-15T06:33:21.651Z,11.90
2018-09-15T06:35:51.540Z,9.27
2018-09-15T06:38:20.698Z,11.93
2018-09-15T06:40:49.902Z,7.40
2018-09-15T06:43:18.811Z,7.07
2018-09-15T06:45:47.994Z,6.10
2018-09-15T06:48:18.220Z,6.70
2018-09-15T06:50:47.312Z,6.03
2018-09-15T06:53:16.394Z,6.47
2018-09-15T06:55:46.264Z,5.40
2018-09-15T06:58:15.335Z,6.13
2018-09-15T07:00:44.577Z,5.90
2018-09-15T07:03:14.601Z,6.63
2018-09-15T07:05:43.448Z,5.80
2018-09-15T07:08:12.198Z,6.27
2018-09-15T07:10:41.320Z,6.30
2018-09-15T07:13:10.766Z,5.30
2018-09-15T07:15:39.831Z,5.23
2018-09-15T07:18:09.878Z,5.50
2018-09-15T07:20:38.664Z,5.67
2018-09-15T07:23:07.435Z,5.40
2018-09-15T07:25:38.351Z,8.60
2018-09-15T07:28:07.513Z,40.20
2018-09-15T07:30:36.303Z,6.47
2018-09-15T07:33:05.481Z,6.10
2018-09-15T07:35:34.669Z,6.47
2018-09-15T07:38:03.558Z,6.90
2018-09-15T07:40:33.543Z,7.87
2018-09-15T07:43:02.334Z,6.63
2018-09-15T07:45:31.115Z,6.30
2018-09-15T07:48:00.162Z,6.30
2018-09-15T07:50:28.980Z,9.40
2018-09-15T07:52:57.770Z,6.77
2018-09-15T07:55:27.008Z,6.93
2018-09-15T07:57:56.015Z,10.10
2018-09-15T08:00:24.801Z,6.23
2018-09-15T08:02:54.678Z,7.30
2018-09-15T08:05:23.444Z,7.13
2018-09-15T08:07:52.247Z,6.83
2018-09-15T08:10:21.815Z,13.47
2018-09-15T08:12:50.682Z,10.50
2018-09-15T08:15:19.465Z,9.17
2018-09-15T08:17:48.310Z,6.90
2018-09-15T08:20:17.114Z,7.67
2018-09-15T08:22:45.888Z,7.37
2018-09-15T08:25:14.911Z,6.90
2018-09-15T08:27:44.033Z,17.67
2018-09-15T08:30:13.224Z,6.13
2018-09-15T08:32:44.059Z,7.30
2018-09-15T08:35:13.180Z,6.60
2018-09-15T08:37:41.974Z,8.00
2018-09-15T08:40:13.495Z,6.93
2018-09-15T08:42:42.289Z,5.60
2018-09-15T08:45:11.253Z,9.03
2018-09-15T08:47:40.400Z,6.17
2018-09-15T08:50:09.501Z,5.63
2018-09-15T08:52:40.164Z,6.10
2018-09-15T08:55:09.365Z,5.60
2018-09-15T08:57:38.486Z,6.03
2018-09-15T09:00:08.467Z,5.77
2018-09-15T09:02:38.518Z,10.40
2018-09-15T09:05:07.408Z,7.77
2018-09-15T09:07:36.705Z,7.37
2018-09-15T09:10:05.558Z,6.13
2018-09-15T09:12:34.344Z,5.73
2018-09-15T09:15:03.156Z,6.40
2018-09-15T09:17:31.986Z,6.00
2018-09-15T09:20:01.792Z,6.70
2018-09-15T09:22:31.798Z,9.07
2018-09-15T09:25:00.578Z,6.50
2018-09-15T09:27:29.366Z,5.77
2018-09-15T09:29:58.500Z,6.80
2018-09-15T09:32:27.437Z,6.63
2018-09-15T09:34:56.253Z,6.30
2018-09-15T09:37:26.274Z,6.20
2018-09-15T09:39:55.016Z,5.60
2018-09-15T09:42:23.945Z,5.87
2018-09-15T09:44:53.998Z,9.53
2018-09-15T09:47:22.938Z,4.93
2018-09-15T09:49:51.870Z,5.47
2018-09-15T09:52:20.976Z,5.50
2018-09-15T09:54:49.736Z,5.50
2018-09-15T09:57:18.521Z,5.23
2018-09-15T09:59:47.559Z,5.20
2018-09-15T10:02:22.339Z,5.30
2018-09-15T10:04:52.225Z,5.10
2018-09-15T10:07:21.462Z,5.30
2018-09-15T10:09:50.425Z,5.63
2018-09-15T10:12:22.414Z,6.47
2018-09-15T10:14:51.623Z,5.50
2018-09-15T10:17:20.846Z,5.47
2018-09-15T10:19:49.856Z,4.70
2018-09-15T10:22:18.959Z,5.30
2018-09-15T10:24:48.482Z,4.77
2018-09-15T10:27:17.691Z,5.57
2018-09-15T10:29:46.830Z,4.57
2018-09-15T10:32:16.909Z,5.47
2018-09-15T10:34:45.703Z,5.47
2018-09-15T10:37:14.875Z,4.93
2018-09-15T10:39:44.281Z,7.07
2018-09-15T10:42:13.505Z,4.80
2018-09-15T10:44:42.728Z,5.20
2018-09-15T10:47:12.472Z,5.10
2018-09-15T10:49:41.669Z,5.00
2018-09-15T10:52:10.787Z,4.87
2018-09-15T10:54:39.707Z,5.80
2018-09-15T10:57:08.883Z,5.10
2018-09-15T10:59:38.020Z,7.20
2018-09-15T11:02:11.814Z,5.30
2018-09-15T11:04:41.067Z,9.17
2018-09-15T11:07:10.156Z,5.40
2018-09-15T11:09:39.534Z,5.13
2018-09-15T11:12:08.284Z,9.73
2018-09-15T11:14:37.290Z,4.80
2018-09-15T11:17:06.904Z,5.23
2018-09-15T11:19:36.621Z,5.30
2018-09-15T11:22:05.914Z,7.43
2018-09-15T11:24:34.894Z,8.40
2018-09-15T11:27:04.741Z,5.30
2018-09-15T11:29:33.920Z,5.10
2018-09-15T11:32:03.446Z,5.73
2018-09-15T11:34:32.561Z,16.60
2018-09-15T11:37:01.553Z,5.27
2018-09-15T11:39:30.601Z,4.83
2018-09-15T11:41:59.675Z,4.80
2018-09-15T11:44:28.903Z,4.63
2018-09-15T11:46:59.160Z,8.10
2018-09-15T11:49:28.196Z,5.37
2018-09-15T11:51:57.332Z,5.70
2018-09-15T11:54:26.662Z,5.03
2018-09-15T11:56:55.786Z,4.47
2018-09-15T11:59:24.854Z,5.20
2018-09-15T12:01:53.994Z,5.70
2018-09-15T12:04:22.942Z,4.73
2018-09-15T12:06:52.939Z,4.50
2018-09-15T12:09:22.084Z,5.97
2018-09-15T12:11:51.195Z,5.60
2018-09-15T12:14:20.100Z,5.70
2018-09-15T12:16:48.828Z,7.20
2018-09-15T12:19:17.652Z,5.43
2018-09-15T12:21:47.369Z,7.20
2018-09-15T12:24:16.105Z,4.70
2018-09-15T12:26:44.933Z,7.17
2018-09-15T12:29:13.996Z,6.30
2018-09-15T12:31:42.773Z,6.47
2018-09-15T12:34:11.808Z,15.40
2018-09-15T12:36:40.932Z,5.97
2018-09-15T12:39:09.884Z,6.13
2018-09-15T12:41:39.384Z,5.97
2018-09-15T12:44:08.554Z,5.40
2018-09-15T12:46:37.806Z,5.63
2018-09-15T12:49:06.854Z,7.20
2018-09-15T12:51:36.222Z,6.83
2018-09-15T12:54:05.270Z,6.77
2018-09-15T12:56:34.304Z,8.10
2018-09-15T12:59:03.916Z,7.07
2018-09-15T13:01:32.947Z,19.93
2018-09-15T13:04:03.170Z,6.17
2018-09-15T13:06:36.256Z,6.57
2018-09-15T13:09:08.078Z,6.73
2018-09-15T13:11:38.184Z,6.70
2018-09-15T13:14:07.519Z,7.00
2018-09-15T13:16:36.718Z,9.13
2018-09-15T13:19:05.971Z,6.27
2018-09-15T13:21:35.002Z,5.73
2018-09-15T13:24:04.057Z,6.13
2018-09-15T13:26:33.997Z,9.57
2018-09-15T13:29:03.110Z,6.47
2018-09-15T13:31:33.652Z,6.87
2018-09-15T13:34:03.061Z,8.67
2018-09-15T13:36:32.187Z,12.40
2018-09-15T13:39:01.965Z,7.43
2018-09-15T13:41:31.034Z,7.80
2018-09-15T13:44:00.059Z,7.00
2018-09-15T13:46:29.141Z,16.40
2018-09-15T13:48:57.908Z,8.53
2018-09-15T13:51:26.958Z,8.80
2018-09-15T13:53:56.355Z,11.93
2018-09-15T13:56:25.400Z,8.40
2018-09-15T13:58:54.533Z,8.47
2018-09-15T14:01:24.527Z,7.30
2018-09-15T14:03:53.772Z,16.03
2018-09-15T14:06:22.557Z,11.03
2018-09-15T14:08:52.623Z,14.07
2018-09-15T14:11:21.402Z,7.67
2018-09-15T14:13:50.413Z,9.90
2018-09-15T14:16:21.002Z,9.57
2018-09-15T14:18:49.962Z,7.90
2018-09-15T14:21:19.297Z,8.93
2018-09-15T14:23:49.033Z,8.13
2018-09-15T14:26:18.136Z,19.07
2018-09-15T14:28:46.930Z,8.07
2018-09-15T14:31:16.173Z,8.50
2018-09-15T14:33:45.105Z,8.80
2018-09-15T14:36:14.035Z,10.67
2018-09-15T14:38:43.182Z,9.17
2018-09-15T14:41:12.057Z,9.27
2018-09-15T14:43:40.849Z,10.33
2018-09-15T14:46:09.621Z,9.50
2018-09-15T14:48:38.713Z,9.00
2018-09-15T14:51:08.227Z,9.80
2018-09-15T14:53:37.591Z,10.73
2018-09-15T14:56:07.008Z,13.50
2018-09-15T14:58:37.938Z,9.10
2018-09-15T15:01:07.461Z,9.60
2018-09-15T15:03:37.806Z,9.33
2018-09-15T15:06:09.038Z,9.63
2018-09-15T15:08:38.992Z,9.73
2018-09-15T15:11:08.081Z,10.20
2018-09-15T15:13:37.401Z,11.53
2018-09-15T15:16:06.323Z,10.20
2018-09-15T15:18:34.822Z,10.00
2018-09-15T15:21:03.409Z,10.60
2018-09-15T15:23:31.951Z,11.17
2018-09-15T15:26:00.539Z,9.77
2018-09-15T15:28:29.787Z,10.03
2018-09-15T15:30:58.749Z,10.20
2018-09-15T15:33:27.971Z,10.80
2018-09-15T15:35:57.330Z,10.10
2018-09-15T15:38:27.323Z,10.60
2018-09-15T15:40:55.933Z,11.80
2018-09-15T15:43:26.595Z,20.40
2018-09-15T15:45:55.951Z,14.87
2018-09-15T15:48:25.725Z,12.53
2018-09-15T15:50:54.380Z,15.37
2018-09-15T15:53:23.541Z,18.37
2018-09-15T15:55:52.403Z,14.77
2018-09-15T15:58:24.089Z,13.30
2018-09-15T16:00:53.228Z,12.20
2018-09-15T16:03:22.140Z,12.53
2018-09-15T16:05:51.947Z,11.37
2018-09-15T16:08:21.186Z,11.80
2018-09-15T16:10:50.226Z,15.67
2018-09-15T16:13:19.749Z,11.10
2018-09-15T16:15:48.980Z,15.10
2018-09-15T16:18:17.482Z,13.10
2018-09-15T16:20:47.421Z,12.60
2018-09-15T16:23:16.679Z,13.87
2018-09-15T16:25:47.183Z,13.30
2018-09-15T16:28:16.743Z,14.77
2018-09-15T16:30:46.071Z,13.93
2018-09-15T16:33:15.973Z,13.67
2018-09-15T16:35:47.454Z,12.77
2018-09-15T16:38:16.715Z,13.03
2018-09-15T16:40:45.645Z,16.13
2018-09-15T16:43:18.097Z,13.30
2018-09-15T16:45:48.748Z,13.33
2018-09-15T16:48:17.855Z,14.90
2018-09-15T16:50:46.685Z,11.93
2018-09-15T16:53:15.489Z,12.60
2018-09-15T16:55:45.554Z,12.87
2018-09-15T16:58:14.683Z,12.70
2018-09-15T17:00:43.810Z,12.90
2018-09-15T17:03:13.189Z,12.90
2018-09-15T17:05:42.458Z,12.30
2018-09-15T17:08:11.068Z,12.07
2018-09-15T17:10:40.517Z,11.73
2018-09-15T17:13:09.889Z,11.23
2018-09-15T17:15:39.109Z,12.03
2018-09-15T17:18:08.532Z,12.47
2018-09-15T17:20:37.632Z,12.87
2018-09-15T17:23:06.917Z,12.30
2018-09-15T17:25:36.481Z,12.20
2018-09-15T17:28:05.093Z,13.70
2018-09-15T17:30:33.894Z,12.83
2018-09-15T17:33:02.815Z,12.30
2018-09-15T17:35:31.594Z,13.10
2018-09-15T17:38:00.105Z,12.13
2018-09-15T17:40:29.126Z,12.50
2018-09-15T17:42:57.931Z,12.67
2018-09-15T17:45:27.142Z,12.60
2018-09-15T17:47:56.482Z,13.63
2018-09-15T17:50:25.661Z,13.53
2018-09-15T17:52:54.770Z,15.40
2018-09-15T17:55:25.745Z,13.30
2018-09-15T17:57:54.327Z,13.43
2018-09-15T18:00:22.961Z,13.20
2018-09-15T18:02:51.865Z,14.30
2018-09-15T18:05:20.469Z,15.43
2018-09-15T18:07:49.336Z,14.53
2018-09-15T18:10:19.192Z,14.10
2018-09-15T18:12:48.020Z,19.67
2018-09-15T18:15:16.879Z,14.87
2018-09-15T18:17:46.099Z,15.10
2018-09-15T18:20:14.924Z,14.47
2018-09-15T18:22:44.146Z,18.07
2018-09-15T18:25:13.214Z,16.20
2018-09-15T18:27:42.091Z,15.43
2018-09-15T18:30:10.918Z,16.40
2018-09-15T18:32:40.924Z,17.43
2018-09-15T18:35:10.004Z,19.10
2018-09-15T18:37:39.113Z,17.00
2018-09-15T18:40:08.360Z,17.57
2018-09-15T18:42:36.904Z,15.40
2018-09-15T18:45:05.365Z,19.27
2018-09-15T18:47:34.689Z,16.40
2018-09-15T18:50:03.772Z,17.90
2018-09-15T18:52:32.172Z,15.60
2018-09-15T18:55:01.932Z,15.60
2018-09-15T18:57:30.768Z,17.70
2018-09-15T18:59:59.920Z,15.73
2018-09-15T19:02:28.870Z,16.37
2018-09-15T19:04:57.690Z,15.10
2018-09-15T19:07:27.264Z,15.97
2018-09-15T19:09:56.089Z,15.50
2018-09-15T19:12:24.477Z,15.20
2018-09-15T19:14:53.816Z,19.13
2018-09-15T19:17:23.088Z,16.87
2018-09-15T19:19:52.281Z,15.30
2018-09-15T19:22:21.656Z,15.07
2018-09-15T19:24:50.239Z,22.33
2018-09-15T19:27:19.224Z,15.07
2018-09-15T19:29:49.245Z,16.10
2018-09-15T19:32:18.357Z,13.70
2018-09-15T19:34:47.481Z,14.73
2018-09-15T19:37:16.930Z,14.07
2018-09-15T19:39:46.113Z,15.03
2018-09-15T19:42:14.738Z,14.20
2018-09-15T19:44:45.275Z,14.60
2018-09-15T19:47:14.477Z,13.70
2018-09-15T19:49:43.480Z,14.37
2018-09-15T19:52:12.778Z,13.93
2018-09-15T19:54:41.823Z,14.20
2018-09-15T19:57:10.712Z,14.77
2018-09-15T19:59:39.773Z,15.37
2018-09-15T20:02:09.275Z,13.47
2018-09-15T20:04:38.123Z,13.67
2018-09-15T20:07:09.597Z,14.80
2018-09-15T20:09:37.977Z,14.80
2018-09-15T20:12:06.881Z,14.20
2018-09-15T20:14:36.818Z,14.30
2018-09-15T20:17:04.386Z,13.80
2018-09-15T20:19:31.909Z,14.70
2018-09-15T20:21:59.585Z,14.90
2018-09-15T20:24:28.382Z,15.07
2018-09-15T20:26:57.179Z,14.10
2018-09-15T20:29:25.879Z,14.53
2018-09-15T20:31:55.151Z,14.67
2018-09-15T20:34:23.614Z,13.70
2018-09-15T20:36:53.075Z,13.80
2018-09-15T20:39:21.665Z,13.63
2018-09-15T20:41:50.680Z,13.67
2018-09-15T20:44:19.761Z,13.83
2018-09-15T20:46:48.585Z,13.20
2018-09-15T20:49:17.288Z,12.67
2018-09-15T20:51:46.458Z,13.50
2018-09-15T20:54:15.289Z,12.20
2018-09-15T20:56:44.788Z,12.20
2018-09-15T20:59:13.863Z,11.43
2018-09-15T21:01:42.742Z,11.60
2018-09-15T21:04:13.198Z,11.70
2018-09-15T21:06:42.398Z,10.87
2018-09-15T21:09:12.402Z,10.93
2018-09-15T21:11:41.514Z,11.00
2018-09-15T21:14:10.765Z,11.47
2018-09-15T21:16:39.901Z,11.03
2018-09-15T21:19:10.641Z,10.90
2018-09-15T21:21:40.017Z,11.80
2018-09-15T21:24:09.816Z,11.30
2018-09-15T21:26:39.499Z,11.20
2018-09-15T21:29:08.865Z,11.43
2018-09-15T21:31:38.514Z,10.80
2018-09-15T21:34:09.980Z,11.83
2018-09-15T21:36:40.604Z,10.97
2018-09-15T21:39:13.708Z,11.23
2018-09-15T21:41:42.976Z,11.90
2018-09-15T21:44:12.907Z,11.40
2018-09-15T21:46:42.273Z,10.83
2018-09-15T21:49:11.458Z,10.90
2018-09-15T21:51:41.339Z,11.30
2018-09-15T21:54:11.224Z,11.30
2018-09-15T21:56:41.384Z,11.00
2018-09-15T21:59:12.986Z,10.67
2018-09-15T22:01:42.680Z,11.90
2018-09-15T22:04:21.109Z,11.50
2018-09-15T22:06:53.227Z,12.27
2018-09-15T22:09:23.756Z,12.00
2018-09-15T22:11:54.215Z,11.40
2018-09-15T22:14:24.757Z,11.33
2018-09-15T22:16:54.318Z,11.40
2018-09-15T22:19:24.490Z,12.30
2018-09-15T22:21:54.766Z,12.43
2018-09-15T22:24:25.258Z,12.27
2018-09-15T22:26:55.451Z,12.00
2018-09-15T22:29:25.099Z,12.17
2018-09-15T22:31:54.078Z,12.00
2018-09-15T22:34:23.711Z,12.33
2018-09-15T22:36:53.932Z,13.03
2018-09-15T22:39:26.000Z,12.27
2018-09-15T22:41:55.653Z,12.10
2018-09-15T22:44:30.596Z,12.17
2018-09-15T22:47:00.526Z,11.80
2018-09-15T22:49:30.472Z,12.70
2018-09-15T22:52:01.110Z,11.80
2018-09-15T22:54:30.947Z,12.90
2018-09-15T22:57:00.672Z,11.60
2018-09-15T22:59:31.243Z,12.87
2018-09-15T23:02:01.371Z,13.00
2018-09-15T23:04:34.075Z,14.20
2018-09-15T23:07:03.328Z,12.50
2018-09-15T23:09:32.560Z,12.20
2018-09-15T23:12:02.195Z,12.60
2018-09-15T23:14:33.109Z,12.33
2018-09-15T23:17:03.020Z,12.20
2018-09-15T23:19:32.651Z,11.80
2018-09-15T23:22:02.827Z,11.87
2018-09-15T23:24:31.762Z,11.20
2018-09-15T23:27:01.647Z,11.23
2018-09-15T23:29:33.046Z,11.20
2018-09-15T23:32:03.412Z,11.50
2018-09-15T23:34:33.317Z,11.43
2018-09-15T23:37:02.594Z,11.90
2018-09-15T23:39:34.365Z,11.10
2018-09-15T23:42:04.402Z,10.50
2018-09-15T23:44:34.141Z,11.60
2018-09-15T23:47:07.957Z,12.37
2018-09-15T23:49:37.102Z,11.77
2018-09-15T23:52:05.894Z,11.27
2018-09-15T23:54:35.087Z,11.13
2018-09-15T23:57:04.802Z,13.30
2018-09-15T23:59:33.998Z,12.40
